Time;durP1;ratioP1;P1;durP2;ratioP2;P2;SDS_P1;SDS_P2;PMS_P1;PMS_P2;Temp;Humidity;BMP_temperature;BMP_pressure;BME280_temperature;BME280_humidity;BME280_pressure;Samples;Min_cycle;Max_cycle;Signal;HPM_P1;HPM_P2
2022/01/06 00:01:36;;;;;;;12.67;4.03;;;5.90;99.90;;;;;;5084371;28;20224;-76
2022/01/06 00:04:02;;;;;;;10.47;3.83;;;5.90;99.90;;;;;;5088262;28;20269;-76
2022/01/06 00:06:29;;;;;;;9.60;4.10;;;5.90;99.90;;;;;;5091132;28;20267;-77
2022/01/06 00:08:57;;;;;;;12.80;4.27;;;5.90;99.90;;;;;;5096521;28;20200;-77
2022/01/06 00:11:24;;;;;;;9.23;4.40;;;5.90;99.90;;;;;;5084411;28;20973;-77
2022/01/06 00:14:02;;;;;;;13.30;4.50;;;5.80;99.90;;;;;;5076659;28;20237;-76
2022/01/06 00:24:16;;;;;;;9.13;4.20;;;5.70;99.90;;;;;;5062445;28;20188;-76
2022/01/06 00:26:42;;;;;;;18.37;4.93;;;5.70;99.90;;;;;;5079960;28;20534;-75
2022/01/06 00:29:08;;;;;;;12.73;4.40;;;5.70;99.90;;;;;;5062600;28;20205;-76
2022/01/06 00:31:36;;;;;;;8.97;3.93;;;5.80;99.90;;;;;;5083133;28;20172;-76
2022/01/06 00:34:03;;;;;;;9.77;3.93;;;5.80;99.90;;;;;;5079218;28;20277;-76
2022/01/06 00:36:30;;;;;;;7.77;3.70;;;5.80;99.90;;;;;;5076306;28;20211;-76
2022/01/06 00:38:56;;;;;;;11.03;4.10;;;5.80;99.90;;;;;;5078016;28;20641;-77
2022/01/06 00:41:23;;;;;;;9.07;3.90;;;5.80;99.90;;;;;;5079806;28;20172;-76
2022/01/06 00:43:48;;;;;;;10.57;4.13;;;5.90;99.90;;;;;;5083675;28;20901;-77
2022/01/06 00:46:14;;;;;;;8.90;3.90;;;5.90;99.90;;;;;;5086900;28;20207;-76
2022/01/06 00:48:40;;;;;;;8.50;3.80;;;5.90;99.90;;;;;;5087338;28;20196;-76
2022/01/06 00:51:08;;;;;;;8.90;3.47;;;5.90;99.90;;;;;;5069648;28;20180;-76
2022/01/06 00:53:34;;;;;;;6.40;3.77;;;5.90;99.90;;;;;;5083549;28;20745;-77
2022/01/06 00:56:00;;;;;;;8.77;4.67;;;6.00;99.90;;;;;;5077092;28;20184;-76
2022/01/06 00:58:26;;;;;;;9.80;3.77;;;6.00;99.90;;;;;;5080846;28;20673;-76
2022/01/06 01:00:51;;;;;;;7.70;4.13;;;5.90;99.90;;;;;;5064446;28;20212;-76
2022/01/06 01:03:20;;;;;;;8.30;3.93;;;5.90;99.90;;;;;;5084107;28;20215;-76
2022/01/06 01:05:52;;;;;;;8.87;4.00;;;5.90;99.90;;;;;;5104054;28;20656;-76
2022/01/06 01:08:19;;;;;;;9.43;4.20;;;5.90;99.90;;;;;;5090019;28;20771;-77
2022/01/06 01:10:47;;;;;;;10.77;4.67;;;5.80;99.90;;;;;;5088796;28;20554;-76
2022/01/06 01:13:13;;;;;;;10.07;4.00;;;5.80;99.90;;;;;;5082427;28;20211;-76
2022/01/06 01:15:53;;;;;;;10.33;4.03;;;5.80;99.90;;;;;;5079165;28;20180;-75
2022/01/06 01:18:21;;;;;;;10.43;4.30;;;5.80;99.90;;;;;;5058703;28;20192;-75
2022/01/06 01:20:48;;;;;;;10.23;4.00;;;5.80;99.90;;;;;;5077165;28;20263;-76
2022/01/06 01:23:15;;;;;;;10.57;4.60;;;5.80;99.90;;;;;;5069545;28;20192;-76
2022/01/06 01:25:40;;;;;;;9.53;4.60;;;5.70;99.90;;;;;;5079135;28;20271;-76
2022/01/06 01:28:06;;;;;;;8.90;4.03;;;5.80;99.90;;;;;;5078152;28;20299;-77
2022/01/06 01:30:40;;;;;;;10.80;4.30;;;5.80;99.90;;;;;;5081313;28;20238;-75
2022/01/06 01:33:14;;;;;;;11.20;4.70;;;5.80;99.90;;;;;;5080682;28;20280;-75
2022/01/06 01:35:41;;;;;;;8.13;4.50;;;5.80;99.90;;;;;;5056695;28;1021820;-76
2022/01/06 01:38:07;;;;;;;11.67;4.07;;;5.70;99.90;;;;;;5077771;28;20212;-76
2022/01/06 01:40:33;;;;;;;9.30;3.80;;;5.70;99.90;;;;;;5076987;28;20188;-76
2022/01/06 01:42:59;;;;;;;8.30;4.10;;;5.70;99.90;;;;;;5081614;28;20176;-77
2022/01/06 01:45:30;;;;;;;11.80;4.20;;;5.70;99.90;;;;;;5067026;28;20190;-77
2022/01/06 01:47:58;;;;;;;8.27;4.33;;;5.70;99.90;;;;;;5081485;28;20322;-76
2022/01/06 01:50:24;;;;;;;12.93;4.40;;;5.70;99.90;;;;;;5088736;28;20222;-77
2022/01/06 01:52:56;;;;;;;9.20;3.80;;;5.70;99.90;;;;;;5071723;28;20659;-76
2022/01/06 01:55:26;;;;;;;9.90;4.30;;;5.70;99.90;;;;;;5075012;28;20183;-76
2022/01/06 01:57:53;;;;;;;7.53;3.90;;;5.70;99.90;;;;;;5070000;28;20205;-77
2022/01/06 02:00:22;;;;;;;12.93;4.50;;;5.80;99.90;;;;;;5089256;28;20202;-76
2022/01/06 02:02:48;;;;;;;9.17;4.10;;;5.80;99.90;;;;;;5078795;28;20329;-76
2022/01/06 02:05:14;;;;;;;10.17;4.17;;;5.80;99.90;;;;;;5082192;28;20184;-76
2022/01/06 02:07:41;;;;;;;6.07;3.90;;;5.80;99.90;;;;;;5080896;28;20549;-77
2022/01/06 02:10:09;;;;;;;5.73;3.73;;;5.80;99.90;;;;;;5085168;28;20176;-77
2022/01/06 02:12:37;;;;;;;7.83;3.90;;;5.80;99.90;;;;;;5077899;28;20192;-76
2022/01/06 02:15:06;;;;;;;7.77;4.17;;;5.90;99.90;;;;;;5078323;28;20200;-77
2022/01/06 02:17:31;;;;;;;7.33;3.33;;;5.90;99.90;;;;;;5078207;28;20675;-77
2022/01/06 02:19:59;;;;;;;8.50;3.60;;;5.90;99.90;;;;;;5076859;28;20195;-75
2022/01/06 02:22:26;;;;;;;6.77;3.40;;;5.90;99.90;;;;;;5078719;28;20655;-75
2022/01/06 02:24:52;;;;;;;6.43;3.33;;;5.90;99.90;;;;;;5076184;28;20238;-76
2022/01/06 02:27:22;;;;;;;8.00;3.27;;;6.00;99.90;;;;;;5083012;28;20177;-76
2022/01/06 02:29:49;;;;;;;7.77;3.70;;;6.00;99.90;;;;;;5078139;28;20204;-75
2022/01/06 02:32:17;;;;;;;10.97;3.87;;;6.00;99.90;;;;;;5080715;28;20181;-75
2022/01/06 02:34:44;;;;;;;7.80;4.10;;;6.00;99.90;;;;;;5079541;28;20297;-77
2022/01/06 02:37:11;;;;;;;8.37;4.20;;;6.00;99.90;;;;;;5061900;28;20200;-76
2022/01/06 02:39:37;;;;;;;5.57;3.70;;;6.00;99.90;;;;;;5060195;28;20181;-76
2022/01/06 02:42:03;;;;;;;8.73;3.83;;;6.00;99.90;;;;;;5081239;28;20183;-75
2022/01/06 02:44:30;;;;;;;9.27;3.70;;;6.00;99.90;;;;;;5079594;28;21743;-76
2022/01/06 02:46:55;;;;;;;10.13;4.10;;;6.00;99.90;;;;;;5078235;28;20208;-77
2022/01/06 02:49:21;;;;;;;7.70;3.73;;;6.00;99.90;;;;;;5081456;28;20832;-77
2022/01/06 02:51:47;;;;;;;7.33;3.50;;;6.00;99.90;;;;;;5076362;28;20219;-76
2022/01/06 02:54:14;;;;;;;7.77;3.83;;;6.00;99.90;;;;;;5068715;28;20683;-76
2022/01/06 02:56:42;;;;;;;10.77;4.07;;;6.00;99.90;;;;;;5070937;28;20216;-77
2022/01/06 02:59:08;;;;;;;5.57;3.47;;;6.00;99.90;;;;;;5083944;28;20676;-77
2022/01/06 03:01:41;;;;;;;10.27;3.67;;;6.00;99.90;;;;;;5069639;28;20187;-77
2022/01/06 03:04:07;;;;;;;6.53;3.47;;;6.00;99.90;;;;;;5089154;28;20177;-76
2022/01/06 03:06:33;;;;;;;6.83;3.20;;;5.90;99.90;;;;;;5088412;28;20603;-76
2022/01/06 03:08:59;;;;;;;10.67;3.87;;;5.90;99.90;;;;;;5087891;28;20204;-76
2022/01/06 03:11:26;;;;;;;8.13;3.70;;;5.80;99.90;;;;;;5079039;28;20180;-76
2022/01/06 03:13:56;;;;;;;5.53;3.60;;;5.80;99.90;;;;;;5090412;28;20235;-77
2022/01/06 03:16:22;;;;;;;9.57;3.57;;;5.90;99.90;;;;;;5092727;28;20181;-77
2022/01/06 03:18:48;;;;;;;7.27;3.37;;;5.80;99.90;;;;;;5089320;28;20749;-76
2022/01/06 03:21:14;;;;;;;8.47;3.30;;;5.90;99.90;;;;;;5091345;28;20176;-76
2022/01/06 03:23:40;;;;;;;9.80;3.73;;;5.80;99.90;;;;;;5088425;28;20556;-77
2022/01/06 03:26:06;;;;;;;8.27;3.90;;;5.80;99.90;;;;;;5092923;28;20259;-76
2022/01/06 03:28:32;;;;;;;7.07;3.77;;;5.90;99.90;;;;;;5092776;28;20276;-77
2022/01/06 03:30:58;;;;;;;9.17;3.60;;;5.80;99.90;;;;;;5091829;28;20187;-76
2022/01/06 03:33:24;;;;;;;8.97;3.80;;;5.80;99.90;;;;;;5093445;28;20574;-77
2022/01/06 03:35:49;;;;;;;9.37;3.73;;;5.90;99.90;;;;;;5093102;28;20184;-77
2022/01/06 03:38:15;;;;;;;7.60;3.57;;;5.90;99.90;;;;;;5091370;28;20196;-77
2022/01/06 03:40:41;;;;;;;11.20;3.60;;;5.90;99.90;;;;;;5072627;28;20186;-77
2022/01/06 03:43:08;;;;;;;9.73;3.70;;;5.90;99.90;;;;;;5051129;28;20295;-76
2022/01/06 03:45:35;;;;;;;6.67;3.40;;;5.90;99.90;;;;;;5082407;28;20181;-77
2022/01/06 03:48:03;;;;;;;6.40;3.57;;;5.90;99.90;;;;;;5080102;28;20285;-76
2022/01/06 03:50:30;;;;;;;7.73;3.73;;;5.90;99.90;;;;;;5081082;28;20662;-77
2022/01/06 03:52:55;;;;;;;8.70;4.13;;;5.90;99.90;;;;;;5078505;28;20176;-77
2022/01/06 03:55:21;;;;;;;7.60;3.83;;;5.80;99.90;;;;;;5080656;28;20691;-75
2022/01/06 03:57:48;;;;;;;8.33;3.60;;;5.90;99.90;;;;;;5083439;28;20268;-77
2022/01/06 04:00:17;;;;;;;6.60;3.93;;;5.90;99.90;;;;;;5091996;28;20777;-76
2022/01/06 04:02:43;;;;;;;6.87;3.53;;;5.90;99.90;;;;;;5081463;28;20713;-75
2022/01/06 04:05:11;;;;;;;8.10;4.00;;;5.90;99.90;;;;;;5081749;28;20183;-78
2022/01/06 04:07:38;;;;;;;6.33;3.70;;;5.90;99.90;;;;;;5079591;28;20208;-74
2022/01/06 04:10:05;;;;;;;8.40;3.73;;;5.80;99.90;;;;;;5079308;28;20692;-75
2022/01/06 04:12:34;;;;;;;7.97;3.57;;;5.80;99.90;;;;;;5074840;28;20184;-74
2022/01/06 04:15:01;;;;;;;8.33;3.53;;;5.70;99.90;;;;;;5078628;28;20466;-77
2022/01/06 04:17:26;;;;;;;14.27;6.53;;;5.70;99.90;;;;;;5060067;28;20204;-77
2022/01/06 04:19:52;;;;;;;9.70;4.60;;;5.60;99.90;;;;;;5077957;28;20185;-76
2022/01/06 04:22:18;;;;;;;9.13;4.73;;;5.60;99.90;;;;;;5085218;28;20691;-74
2022/01/06 04:24:45;;;;;;;7.53;3.63;;;5.60;99.90;;;;;;5088683;28;20694;-76
2022/01/06 04:27:11;;;;;;;13.87;5.20;;;5.50;99.90;;;;;;5088990;28;20184;-75
2022/01/06 04:29:37;;;;;;;14.70;5.83;;;5.50;99.90;;;;;;5082476;28;20179;-76
2022/01/06 04:32:03;;;;;;;16.27;7.27;;;5.50;99.90;;;;;;5070822;28;20292;-76
2022/01/06 04:34:30;;;;;;;9.53;4.97;;;5.40;99.90;;;;;;5090630;28;20291;-76
2022/01/06 04:36:58;;;;;;;8.20;4.67;;;5.40;99.90;;;;;;5086927;28;20351;-76
2022/01/06 04:39:23;;;;;;;8.60;4.47;;;5.40;99.90;;;;;;5084500;28;20695;-76
2022/01/06 04:41:50;;;;;;;12.33;4.93;;;5.30;99.90;;;;;;5081975;28;20177;-76
2022/01/06 04:44:15;;;;;;;9.57;4.53;;;5.20;99.90;;;;;;5082657;28;20181;-76
2022/01/06 04:46:41;;;;;;;8.23;3.97;;;5.20;99.90;;;;;;5086695;28;20242;-76
2022/01/06 04:49:07;;;;;;;7.97;4.33;;;5.20;99.90;;;;;;5084778;28;20196;-76
2022/01/06 04:51:33;;;;;;;11.07;5.30;;;5.10;99.90;;;;;;5080532;28;20530;-75
2022/01/06 04:53:59;;;;;;;15.30;6.00;;;5.10;99.90;;;;;;5086008;28;20195;-74
2022/01/06 04:56:25;;;;;;;7.73;4.23;;;5.00;99.90;;;;;;5082335;28;20176;-76
2022/01/06 04:58:51;;;;;;;7.53;3.93;;;5.00;99.90;;;;;;5084485;28;20475;-76
2022/01/06 05:01:17;;;;;;;13.93;6.60;;;5.00;99.90;;;;;;5085039;28;20260;-76
2022/01/06 05:03:43;;;;;;;14.37;6.80;;;4.90;99.90;;;;;;5082648;28;22241;-74
2022/01/06 05:06:09;;;;;;;16.47;7.73;;;4.90;99.90;;;;;;5084607;28;20176;-74
2022/01/06 05:08:35;;;;;;;27.13;11.07;;;4.90;99.90;;;;;;5085850;28;20269;-76
2022/01/06 05:11:01;;;;;;;25.47;10.93;;;4.90;99.90;;;;;;5080473;28;20185;-76
2022/01/06 05:13:26;;;;;;;22.20;10.10;;;4.80;99.90;;;;;;5088293;28;20652;-76
2022/01/06 05:15:52;;;;;;;29.27;11.43;;;4.80;99.90;;;;;;5091142;28;20178;-76
2022/01/06 05:18:18;;;;;;;20.37;9.50;;;4.90;99.90;;;;;;5090171;28;20196;-76
2022/01/06 05:20:44;;;;;;;23.60;9.93;;;4.90;99.90;;;;;;5072759;28;20208;-75
2022/01/06 05:23:11;;;;;;;15.27;6.97;;;4.90;99.90;;;;;;5089908;28;20180;-76
2022/01/06 05:25:38;;;;;;;10.23;5.00;;;5.00;99.90;;;;;;5088813;28;20172;-76
2022/01/06 05:28:05;;;;;;;7.73;4.53;;;4.90;99.90;;;;;;5090895;28;20714;-75
2022/01/06 05:30:31;;;;;;;15.97;5.93;;;4.90;99.90;;;;;;5086996;28;20548;-76
2022/01/06 05:32:57;;;;;;;11.80;5.53;;;4.90;99.90;;;;;;5083452;28;20184;-76
2022/01/06 05:35:23;;;;;;;10.03;4.93;;;4.90;99.90;;;;;;5089066;28;20208;-75
2022/01/06 05:37:49;;;;;;;9.20;4.53;;;4.90;99.90;;;;;;5087445;28;20204;-75
2022/01/06 05:40:14;;;;;;;8.03;4.00;;;5.00;99.90;;;;;;5089925;28;20196;-76
2022/01/06 05:42:41;;;;;;;9.13;4.00;;;5.00;99.90;;;;;;5087768;28;20195;-76
2022/01/06 05:45:08;;;;;;;7.17;3.93;;;5.00;99.90;;;;;;5087077;28;20185;-75
2022/01/06 05:47:35;;;;;;;21.90;9.37;;;5.10;99.90;;;;;;5072266;28;20281;-76
2022/01/06 05:50:02;;;;;;;15.97;8.60;;;5.10;99.90;;;;;;5088522;28;20206;-76
2022/01/06 05:52:27;;;;;;;15.00;6.20;;;5.10;99.90;;;;;;5089968;28;20226;-76
2022/01/06 05:54:53;;;;;;;11.80;5.73;;;5.00;99.90;;;;;;5090181;28;20203;-75
2022/01/06 05:57:19;;;;;;;35.97;16.93;;;5.00;99.90;;;;;;5088938;28;20173;-76
2022/01/06 05:59:46;;;;;;;29.43;14.87;;;5.00;99.90;;;;;;5085818;28;20218;-76
2022/01/06 06:02:12;;;;;;;15.13;8.60;;;5.00;99.90;;;;;;5083500;28;20196;-75
2022/01/06 06:04:38;;;;;;;14.97;7.90;;;5.00;99.90;;;;;;5079755;28;20216;-75
2022/01/06 06:07:04;;;;;;;12.80;7.00;;;4.90;99.90;;;;;;5085547;28;20276;-74
2022/01/06 06:09:30;;;;;;;9.10;5.47;;;4.90;99.90;;;;;;5088368;28;20184;-75
2022/01/06 06:11:55;;;;;;;12.23;5.00;;;4.90;99.90;;;;;;5090341;28;20206;-76
2022/01/06 06:14:21;;;;;;;45.00;20.20;;;4.90;99.90;;;;;;5090463;28;20196;-76
2022/01/06 06:16:48;;;;;;;23.10;12.10;;;4.90;99.90;;;;;;5089340;28;20214;-75
2022/01/06 06:19:14;;;;;;;37.50;17.57;;;4.90;99.90;;;;;;5087807;28;20188;-76
2022/01/06 06:21:40;;;;;;;24.97;11.63;;;4.90;99.90;;;;;;5087981;28;20172;-76
2022/01/06 06:24:06;;;;;;;14.40;6.40;;;4.90;99.90;;;;;;5072410;28;20233;-76
2022/01/06 06:26:32;;;;;;;9.93;5.50;;;4.80;99.90;;;;;;5090086;28;20183;-76
2022/01/06 06:28:58;;;;;;;10.03;4.93;;;4.80;99.90;;;;;;5088894;28;20200;-75
2022/01/06 06:31:24;;;;;;;18.10;8.57;;;4.80;99.90;;;;;;5088930;28;20192;-75
2022/01/06 06:33:49;;;;;;;13.93;7.23;;;4.70;99.90;;;;;;5088347;28;20291;-75
2022/01/06 06:36:15;;;;;;;10.03;5.33;;;4.70;99.90;;;;;;5089738;28;20200;-76
2022/01/06 06:38:41;;;;;;;8.13;4.57;;;4.70;99.90;;;;;;5069175;28;20204;-75
2022/01/06 06:41:06;;;;;;;8.57;3.97;;;4.60;99.90;;;;;;5088661;28;20238;-75
2022/01/06 06:43:32;;;;;;;11.63;4.37;;;4.60;99.90;;;;;;5085301;28;20177;-75
2022/01/06 06:45:58;;;;;;;9.90;3.90;;;4.50;99.90;;;;;;5089203;28;20609;-76
2022/01/06 06:48:25;;;;;;;11.30;3.90;;;4.50;99.90;;;;;;5087051;28;20248;-75
2022/01/06 06:50:51;;;;;;;10.93;3.87;;;4.50;99.90;;;;;;5087419;28;20188;-75
2022/01/06 06:53:17;;;;;;;8.10;4.17;;;4.50;99.90;;;;;;5089555;28;20644;-75
2022/01/06 06:55:43;;;;;;;6.00;3.53;;;4.40;99.90;;;;;;5093039;28;20222;-75
2022/01/06 06:58:09;;;;;;;8.63;3.97;;;4.40;99.90;;;;;;5092698;28;20561;-75
2022/01/06 07:00:34;;;;;;;9.03;4.10;;;4.30;99.90;;;;;;5092374;28;20663;-75
2022/01/06 07:03:00;;;;;;;10.10;3.73;;;4.30;99.90;;;;;;5090166;28;20637;-75
2022/01/06 07:05:26;;;;;;;8.57;3.67;;;4.30;99.90;;;;;;5091946;28;20577;-75
2022/01/06 07:07:52;;;;;;;7.43;3.40;;;4.20;99.90;;;;;;5091339;28;20692;-75
2022/01/06 07:10:17;;;;;;;8.80;4.10;;;4.20;99.90;;;;;;5067071;28;20191;-75
2022/01/06 07:12:45;;;;;;;7.40;3.90;;;4.20;99.90;;;;;;5085991;28;20582;-75
2022/01/06 07:15:13;;;;;;;8.13;5.20;;;4.20;99.90;;;;;;5091463;28;20679;-75
2022/01/06 07:17:40;;;;;;;13.70;6.07;;;4.20;99.90;;;;;;5093162;28;20279;-75
2022/01/06 07:20:07;;;;;;;10.57;6.60;;;4.20;99.90;;;;;;5092098;28;20523;-75
2022/01/06 07:22:33;;;;;;;13.17;6.60;;;4.20;99.90;;;;;;5090668;28;20187;-75
2022/01/06 07:25:01;;;;;;;9.50;6.13;;;4.20;99.90;;;;;;5090901;28;20188;-75
2022/01/06 07:27:27;;;;;;;12.63;6.37;;;4.20;99.90;;;;;;5092196;28;20236;-75
2022/01/06 07:29:52;;;;;;;10.93;6.00;;;4.20;99.90;;;;;;5092744;28;20204;-75
2022/01/06 07:32:18;;;;;;;11.17;6.23;;;4.20;99.90;;;;;;5092474;28;20600;-74
2022/01/06 07:34:44;;;;;;;13.10;7.50;;;4.30;99.90;;;;;;5090370;28;20196;-75
2022/01/06 07:37:10;;;;;;;14.47;7.33;;;4.20;99.90;;;;;;5091488;28;20184;-76
2022/01/06 07:39:36;;;;;;;11.67;6.67;;;4.20;99.90;;;;;;5092182;28;20277;-75
2022/01/06 07:42:03;;;;;;;13.97;6.43;;;4.20;99.90;;;;;;5092022;28;20184;-75
2022/01/06 07:44:29;;;;;;;10.03;6.30;;;4.20;99.90;;;;;;5089835;28;20207;-74
2022/01/06 07:46:55;;;;;;;9.57;5.70;;;4.10;99.90;;;;;;5105873;28;20215;-74
2022/01/06 07:49:21;;;;;;;10.90;6.30;;;4.10;99.90;;;;;;5089040;28;20200;-74
2022/01/06 07:51:47;;;;;;;11.13;6.10;;;4.00;99.90;;;;;;5091309;28;20723;-74
2022/01/06 07:54:13;;;;;;;12.80;6.27;;;4.00;99.90;;;;;;5089206;28;20711;-75
2022/01/06 07:56:38;;;;;;;10.93;7.00;;;4.00;99.90;;;;;;5072899;28;20177;-75
2022/01/06 07:59:04;;;;;;;10.57;7.07;;;4.00;99.90;;;;;;5090546;28;20203;-75
2022/01/06 08:01:30;;;;;;;15.20;7.03;;;4.00;99.90;;;;;;5091933;28;20177;-75
2022/01/06 08:03:55;;;;;;;11.40;6.63;;;4.10;99.90;;;;;;5091424;28;20612;-75
2022/01/06 08:06:21;;;;;;;12.23;7.13;;;4.10;99.90;;;;;;5091835;28;21012;-75
2022/01/06 08:08:47;;;;;;;11.40;6.47;;;4.20;99.90;;;;;;5091292;28;20676;-75
2022/01/06 08:11:14;;;;;;;11.03;6.27;;;4.30;99.90;;;;;;5095084;28;20176;-75
2022/01/06 08:13:40;;;;;;;10.80;5.50;;;4.30;99.90;;;;;;5102594;28;20228;-75
2022/01/06 08:16:06;;;;;;;10.17;5.63;;;4.40;99.90;;;;;;5090505;28;20173;-74
2022/01/06 08:18:32;;;;;;;9.43;5.37;;;4.50;99.90;;;;;;5091706;28;20196;-74
2022/01/06 08:20:58;;;;;;;10.23;5.87;;;4.50;99.90;;;;;;5090545;28;20191;-75
2022/01/06 08:23:25;;;;;;;14.03;5.67;;;4.50;99.90;;;;;;5092095;28;20218;-74
2022/01/06 08:25:50;;;;;;;12.43;5.30;;;4.60;99.90;;;;;;5091586;28;20179;-75
2022/01/06 08:28:16;;;;;;;7.90;4.93;;;4.70;99.90;;;;;;5091067;28;20188;-75
2022/01/06 08:30:42;;;;;;;8.87;4.80;;;4.70;99.90;;;;;;5090507;28;20892;-75
2022/01/06 08:33:08;;;;;;;9.13;4.63;;;4.80;99.90;;;;;;5090886;28;20181;-75
2022/01/06 08:35:34;;;;;;;12.87;6.13;;;4.90;99.90;;;;;;5089242;28;20205;-75
2022/01/06 08:38:00;;;;;;;12.03;5.97;;;4.90;99.90;;;;;;5091550;28;20231;-75
2022/01/06 08:40:25;;;;;;;9.97;6.40;;;5.00;99.90;;;;;;5089793;28;20204;-75
2022/01/06 08:42:52;;;;;;;11.30;6.20;;;5.00;99.90;;;;;;5086665;28;20561;-75
2022/01/06 08:45:18;;;;;;;12.13;6.33;;;5.10;99.90;;;;;;5088354;28;20183;-74
2022/01/06 08:47:46;;;;;;;11.47;5.30;;;5.10;99.90;;;;;;5098870;28;20216;-75
2022/01/06 08:50:13;;;;;;;12.43;5.43;;;5.20;99.90;;;;;;5086698;28;20185;-75
2022/01/06 08:52:39;;;;;;;10.50;4.53;;;5.20;99.90;;;;;;5089792;28;20180;-76
2022/01/06 08:55:07;;;;;;;10.10;4.50;;;5.20;99.90;;;;;;5072219;28;20216;-75
2022/01/06 08:57:33;;;;;;;9.07;4.67;;;5.20;99.90;;;;;;5103444;28;20915;-75
2022/01/06 08:59:59;;;;;;;11.00;4.50;;;5.30;99.90;;;;;;5092051;28;20172;-75
2022/01/06 09:02:26;;;;;;;6.90;4.30;;;5.40;99.90;;;;;;5091660;28;20172;-76
2022/01/06 09:04:52;;;;;;;5.53;4.13;;;5.50;99.90;;;;;;5090917;28;20176;-74
2022/01/06 09:07:18;;;;;;;10.70;4.83;;;5.50;99.90;;;;;;5090506;28;20195;-73
2022/01/06 09:09:43;;;;;;;13.03;5.40;;;5.60;99.90;;;;;;5091015;28;20184;-74
2022/01/06 09:12:17;;;;;;;10.00;5.33;;;5.60;99.90;;;;;;5090871;28;20875;-75
2022/01/06 09:14:46;;;;;;;11.73;4.50;;;5.60;99.90;;;;;;5090421;28;20208;-75
2022/01/06 09:17:13;;;;;;;8.90;3.83;;;5.60;99.90;;;;;;5071775;28;20189;-75
2022/01/06 09:19:39;;;;;;;7.50;3.20;;;5.70;99.90;;;;;;5072756;28;20170;-75
2022/01/06 09:22:05;;;;;;;8.43;3.83;;;5.80;99.90;;;;;;5090541;28;20578;-75
2022/01/06 09:24:30;;;;;;;8.43;4.00;;;5.70;99.90;;;;;;5090928;28;20551;-75
2022/01/06 09:26:56;;;;;;;9.33;3.90;;;5.70;99.90;;;;;;5091194;28;20173;-75
2022/01/06 09:29:22;;;;;;;7.60;3.70;;;5.70;99.90;;;;;;5091359;28;20716;-75
2022/01/06 09:31:47;;;;;;;7.50;3.90;;;5.70;99.90;;;;;;5091590;28;20226;-75
2022/01/06 09:34:13;;;;;;;8.83;4.57;;;5.80;99.90;;;;;;5090286;28;20736;-75
2022/01/06 09:36:41;;;;;;;12.27;5.03;;;5.80;99.90;;;;;;5089134;28;20493;-74
2022/01/06 09:39:12;;;;;;;11.47;4.93;;;5.90;99.90;;;;;;5089362;28;20283;-74
2022/01/06 09:41:38;;;;;;;10.10;4.73;;;5.90;99.90;;;;;;5088692;28;20580;-75
2022/01/06 09:44:05;;;;;;;8.60;4.13;;;5.90;99.90;;;;;;5089869;28;20184;-75
2022/01/06 09:46:31;;;;;;;8.17;3.90;;;5.80;99.90;;;;;;5090278;28;20183;-75
2022/01/06 09:48:59;;;;;;;10.77;4.40;;;5.90;99.90;;;;;;5091153;28;20204;-75
2022/01/06 09:51:28;;;;;;;10.17;4.50;;;5.90;99.90;;;;;;5091232;28;20617;-74
2022/01/06 09:53:57;;;;;;;11.20;4.67;;;5.90;99.90;;;;;;5089704;28;20298;-75
2022/01/06 09:56:26;;;;;;;12.37;3.97;;;6.00;99.90;;;;;;5106375;28;20282;-75
2022/01/06 09:58:52;;;;;;;11.63;3.97;;;5.90;99.90;;;;;;5089768;28;20207;-75
2022/01/06 10:01:18;;;;;;;9.37;3.87;;;5.90;99.90;;;;;;5090319;28;20176;-75
2022/01/06 10:03:46;;;;;;;7.97;3.53;;;5.90;99.90;;;;;;5089448;28;20184;-74
2022/01/06 10:06:15;;;;;;;12.70;3.97;;;5.90;99.90;;;;;;5088064;28;20284;-75
2022/01/06 10:08:59;;;;;;;9.80;3.80;;;5.90;99.90;;;;;;5086860;28;20201;-75
2022/01/06 10:11:31;;;;;;;9.63;3.77;;;5.80;99.90;;;;;;5089318;28;20184;-75
2022/01/06 10:14:04;;;;;;;10.37;3.67;;;5.80;99.90;;;;;;5092302;28;20204;-75
2022/01/06 10:16:31;;;;;;;10.47;3.10;;;5.70;99.90;;;;;;5090298;28;20192;-73
2022/01/06 10:19:04;;;;;;;8.90;3.60;;;5.70;99.90;;;;;;5082996;28;20192;-75
2022/01/06 10:21:41;;;;;;;7.03;3.03;;;5.70;99.90;;;;;;5077488;28;20263;-75
2022/01/06 10:24:14;;;;;;;7.47;3.10;;;5.80;99.90;;;;;;5085637;28;20186;-74
2022/01/06 10:27:14;;;;;;;6.07;2.90;;;5.80;99.90;;;;;;5080121;28;20173;-74
2022/01/06 10:29:44;;;;;;;9.90;2.80;;;5.80;99.90;;;;;;5052181;28;20192;-75
2022/01/06 10:32:15;;;;;;;10.50;3.47;;;5.80;99.90;;;;;;5088189;28;20607;-75
2022/01/06 10:34:53;;;;;;;13.03;3.40;;;5.90;99.90;;;;;;5085441;28;20236;-74
2022/01/06 10:37:19;;;;;;;12.43;3.60;;;5.90;99.90;;;;;;5091509;28;20257;-74
2022/01/06 10:39:47;;;;;;;8.97;3.23;;;5.90;99.90;;;;;;5082144;28;20618;-74
2022/01/06 10:42:13;;;;;;;11.03;3.63;;;5.90;99.90;;;;;;5080669;28;20177;-75
2022/01/06 10:44:53;;;;;;;7.80;3.20;;;6.00;99.90;;;;;;5072673;28;20183;-75
2022/01/06 10:47:31;;;;;;;9.00;2.90;;;6.00;99.90;;;;;;5085022;28;20199;-75
2022/01/06 10:50:15;;;;;;;8.90;3.60;;;6.00;99.90;;;;;;5078206;28;20660;-74
2022/01/06 10:52:47;;;;;;;12.50;3.77;;;6.00;99.90;;;;;;5088313;28;20221;-75
2022/01/06 10:55:13;;;;;;;10.80;4.37;;;6.00;99.90;;;;;;5087624;28;20213;-75
2022/01/06 10:57:57;;;;;;;9.33;3.53;;;6.00;99.90;;;;;;5082257;28;20249;-76
2022/01/06 11:00:27;;;;;;;8.10;3.00;;;6.10;99.90;;;;;;5090271;28;20591;-73
2022/01/06 11:02:52;;;;;;;8.70;4.00;;;6.10;99.90;;;;;;5106001;28;20271;-73
2022/01/06 11:05:18;;;;;;;7.97;2.97;;;6.20;99.90;;;;;;5093693;28;20215;-73
2022/01/06 11:07:44;;;;;;;12.63;3.17;;;6.30;99.90;;;;;;5086922;28;20782;-73
2022/01/06 11:10:16;;;;;;;13.27;3.03;;;6.30;99.90;;;;;;5088948;28;20194;-73
2022/01/06 11:12:42;;;;;;;9.60;3.03;;;6.40;99.90;;;;;;5093577;28;20693;-74
2022/01/06 11:15:09;;;;;;;11.03;2.90;;;6.40;99.90;;;;;;5090086;28;20208;-74
2022/01/06 11:17:35;;;;;;;7.93;3.07;;;6.50;99.90;;;;;;5090089;28;20199;-75
2022/01/06 11:20:03;;;;;;;8.00;3.03;;;6.60;99.90;;;;;;5089619;28;20230;-74
2022/01/06 11:22:29;;;;;;;6.77;3.23;;;6.60;99.90;;;;;;5094259;28;20679;-74
2022/01/06 11:25:03;;;;;;;11.33;3.30;;;6.60;99.90;;;;;;5090586;28;20195;-74
2022/01/06 11:27:36;;;;;;;10.27;3.10;;;6.70;99.90;;;;;;5081623;28;20196;-73
2022/01/06 11:30:15;;;;;;;10.57;3.33;;;6.70;99.90;;;;;;5083632;28;20263;-74
2022/01/06 11:32:42;;;;;;;11.53;3.67;;;6.70;99.90;;;;;;5089574;28;20180;-73
2022/01/06 11:35:18;;;;;;;8.50;3.07;;;6.80;99.90;;;;;;5090322;28;20704;-74
2022/01/06 11:37:49;;;;;;;11.43;3.30;;;6.90;99.90;;;;;;5089150;28;20560;-74
2022/01/06 11:40:28;;;;;;;9.20;3.47;;;7.00;99.90;;;;;;5091661;28;20172;-73
2022/01/06 11:42:55;;;;;;;11.27;3.63;;;7.20;99.90;;;;;;5079763;28;20180;-74
2022/01/06 11:45:21;;;;;;;14.03;3.60;;;7.30;99.90;;;;;;5086866;28;20181;-74
2022/01/06 11:47:47;;;;;;;12.03;3.87;;;7.40;99.90;;;;;;5089414;28;20211;-73
2022/01/06 11:50:25;;;;;;;12.13;3.30;;;7.50;99.10;;;;;;5091264;28;20181;-74
2022/01/06 11:52:59;;;;;;;12.57;3.60;;;7.50;96.80;;;;;;5090237;28;20188;-74
2022/01/06 11:55:33;;;;;;;12.47;3.80;;;7.60;96.80;;;;;;5069980;28;20299;-74
2022/01/06 11:58:09;;;;;;;9.23;3.30;;;7.70;95.60;;;;;;5084777;28;20744;-74
2022/01/06 12:00:37;;;;;;;9.83;3.60;;;7.70;93.40;;;;;;5092149;28;20212;-74
2022/01/06 12:03:10;;;;;;;10.77;3.27;;;7.70;92.80;;;;;;5091330;28;20750;-73
2022/01/06 12:05:54;;;;;;;13.27;3.13;;;7.70;90.70;;;;;;5090687;28;20183;-74
2022/01/06 12:08:32;;;;;;;11.60;3.67;;;7.70;88.50;;;;;;5097622;28;20216;-74
2022/01/06 12:10:58;;;;;;;10.90;3.17;;;7.60;85.90;;;;;;5099919;28;20235;-74
2022/01/06 12:13:24;;;;;;;11.27;3.60;;;7.60;86.10;;;;;;5090920;28;20664;-74
2022/01/06 12:15:52;;;;;;;11.13;3.77;;;7.70;84.90;;;;;;5090912;28;20779;-73
2022/01/06 12:18:20;;;;;;;9.53;3.27;;;8.00;82.70;;;;;;5090602;28;20279;-74
2022/01/06 12:20:48;;;;;;;13.80;3.33;;;8.30;82.00;;;;;;5091987;28;20218;-74
2022/01/06 12:23:15;;;;;;;11.17;3.53;;;8.40;78.30;;;;;;5100432;28;20259;-74
2022/01/06 12:25:41;;;;;;;12.67;3.50;;;8.60;76.80;;;;;;5090989;28;20212;-74
2022/01/06 12:28:10;;;;;;;10.53;3.00;;;8.80;76.40;;;;;;5091236;28;20196;-74
2022/01/06 12:30:38;;;;;;;11.90;3.57;;;9.10;75.40;;;;;;5091369;28;20689;-74
2022/01/06 12:33:08;;;;;;;10.47;3.23;;;9.20;73.10;;;;;;5092169;28;20184;-74
2022/01/06 12:35:42;;;;;;;7.47;3.00;;;9.40;72.70;;;;;;5091510;28;20657;-74
2022/01/06 12:38:10;;;;;;;9.07;3.00;;;9.70;71.00;;;;;;5090262;28;20196;-74
2022/01/06 12:40:42;;;;;;;8.30;2.97;;;9.70;67.90;;;;;;5106667;27;20172;-73
2022/01/06 12:43:40;;;;;;;10.23;3.00;;;9.60;66.50;;;;;;5092051;28;20173;-75
2022/01/06 12:46:10;;;;;;;8.13;2.67;;;9.70;67.40;;;;;;5082582;28;20181;-74
2022/01/06 12:48:41;;;;;;;12.10;3.20;;;10.10;68.00;;;;;;5073037;28;20200;-74
2022/01/06 12:51:10;;;;;;;12.80;3.43;;;10.50;67.80;;;;;;5087391;28;20686;-76
2022/01/06 12:53:40;;;;;;;12.73;3.27;;;10.70;65.10;;;;;;5085511;28;20221;-74
2022/01/06 12:56:06;;;;;;;11.57;3.10;;;10.20;65.40;;;;;;5081749;28;20196;-74
2022/01/06 12:58:34;;;;;;;10.77;2.80;;;9.80;66.70;;;;;;5087774;28;20250;-74
2022/01/06 13:01:09;;;;;;;12.57;3.50;;;9.50;67.70;;;;;;5089485;28;20301;-74